Hundvaag 1 weather for May 1993
Month no. 71
Obs.
Da.
Temp. Dew Point Precip. Wind
Speed
Wind gusts Cloud cover Press. Humidity Wind dir. Sunny OPT
01.05.1993 16,3   0,0             1  
02.05.1993 8,6   0,0                
03.05.1993 5,0   2,5                
04.05.1993 4,9   0,1                
05.05.1993 4,3   0,0                
06.05.1993 5,6   0,0                
07.05.1993 7,1   2,8                
08.05.1993 8,8   0,0                
09.05.1993 12,9   0,0             1  
10.05.1993 11,1   0,0             1  
11.05.1993 11,1   0,0             1  
12.05.1993 7,3   0,0                
13.05.1993 7,2   0,0                
14.05.1993 5,5   0,0                
15.05.1993 10,0   0,0                
16.05.1993 11,2   4,7                
17.05.1993 10,1   6,3                
18.05.1993 14,9   4,1             1  
19.05.1993 14,6   0,0             1  
20.05.1993 15,0   0,0             1  
21.05.1993 18,2   0,0             1  
22.05.1993 15,8   1,7             1  
23.05.1993 16,1   0,2             1  
24.05.1993 11,7   0,0                
25.05.1993 10,9   1,1             1  
26.05.1993 10,7   0,0             1  
27.05.1993 9,1   0,0                
28.05.1993 8,6   0,0                
29.05.1993 10,1   0,0             1  
30.05.1993 11,7   0,0             1  
31.05.1993 11,4   2,6                
Avrg/Sum 10,5   26,1             14